Modesto City Co-Harry Sham Field
KMOD : now visible

Airfield :











YOU CAN JOIN US ON...

 
LOGIN :

Register | Disclaimer

   EN    FR    IT 

 









Legend :    VFR   Marginal VFR   IFR   Intensive IFR   Very Intensive IFR
Visi :
Ceiling :
>= 8 km
>= 3000ft
5 to 8 km
1000 to 3000 ft
1500m to 5 km
500 to 1000 ft
800 to 1500m
200 to 500 ft
< 800m
< 200 ft
Symbols :   Thunderstorms  Fog  Heavy snow  Heavy precipitations  Wind > 20 kt






- Airport Elevation : 97 ft
- IATA code : MOD


KMOD - Modesto City Co-Harry Sham Field

CURRENT METAR :
  • 171648Z 00000KT 1/4SM FG OVC001 06/05 A3032 RMK AO2

EXPIRED METARs :
  • 171640Z 00000KT 3/4SM BR OVC002 06/04 A3032 RMK AO2 T00560044
  • 171613Z 00000KT 1 3/4SM BR OVC002 06/04 A3032 RMK AO2 T00560044
  • 171553Z COR 13003KT 1 1/2SM BR OVC003 06/04 A3031 RMK AO2 SLP263 T00560044
  • 171544Z 08003KT 3SM BR OVC003 06/04 A3031 RMK AO2 T00560044
  • 171453Z COR 12004KT 4SM BR OVC004 06/05 A3029 RMK AO2 SLP258 T00610050 53019
  • 171353Z AUTO 14003KT 5SM BR OVC003 06/04 A3026 RMK AO2 SLP248 T00560044

TAF KMOD
Valid from the 17 at 16:00 until the 18 at 12:00 UTC


171624Z 1716/1812 00000KT 1SM BR OVC002
FM171900 13003KT 4SM BR BKN004 OVC025
FM172100 13003KT P6SM FEW004 BKN050 OVC250



MET'MAP, your aeronautical weather chart ! - Copyright ORBIFLY December 2007 - Disclaimer

ORBIFLY MET'MAP TEAM :

Programming & Development : Alexandra Zaïnal
Concept & original design : Baudouin d'Aumeries
Assistance for programming : Marc-Olivier Méhu
Technical & hardware support : Manuel Goepfert

Contact : metmap@orbifly.com




SOURCES & CREDITS :

   NOAA       Earth
Advisory